createdAt,value
2022-09-27T00:00:59.838Z,12.20
2022-09-27T00:02:02.146Z,12.20
2022-09-27T00:03:05.422Z,12.10
2022-09-27T00:04:07.517Z,12.10
2022-09-27T00:05:10.492Z,12.10
2022-09-27T00:06:14.789Z,12.20
2022-09-27T00:07:17.793Z,12.20
2022-09-27T00:08:20.036Z,12.20
2022-09-27T00:09:23.234Z,12.20
2022-09-27T00:10:25.474Z,12.20
2022-09-27T00:11:30.745Z,12.20
2022-09-27T00:12:32.820Z,12.20
2022-09-27T00:13:39.001Z,12.20
2022-09-27T00:14:41.116Z,12.20
2022-09-27T00:15:45.737Z,12.20
2022-09-27T00:16:47.859Z,12.20
2022-09-27T00:17:52.287Z,12.20
2022-09-27T00:18:58.149Z,12.20
2022-09-27T00:20:01.508Z,12.20
2022-09-27T00:21:08.537Z,12.20
2022-09-27T00:22:11.619Z,12.20
2022-09-27T00:23:14.224Z,12.20
2022-09-27T00:24:19.906Z,12.30
2022-09-27T00:25:22.192Z,12.30
2022-09-27T00:26:25.703Z,12.30
2022-09-27T00:27:28.403Z,12.30
2022-09-27T00:28:32.057Z,12.30
2022-09-27T00:29:40.631Z,12.30
2022-09-27T00:30:45.074Z,12.30
2022-09-27T00:31:48.132Z,12.30
2022-09-27T00:33:01.860Z,12.20
2022-09-27T00:34:07.803Z,12.30
2022-09-27T00:35:10.929Z,12.20
2022-09-27T00:36:12.947Z,12.20
2022-09-27T00:37:15.946Z,12.20
2022-09-27T00:38:18.401Z,12.20
2022-09-27T00:39:21.427Z,12.20
2022-09-27T00:40:24.372Z,12.20
2022-09-27T00:41:29.394Z,12.20
2022-09-27T00:42:31.730Z,12.20
2022-09-27T00:43:45.966Z,12.20
2022-09-27T00:45:01.177Z,12.20
2022-09-27T00:46:06.032Z,12.20
2022-09-27T00:47:11.756Z,12.20
2022-09-27T00:48:19.632Z,12.20
2022-09-27T00:49:26.845Z,12.20
2022-09-27T00:50:32.584Z,12.20
2022-09-27T00:51:38.382Z,12.20
2022-09-27T00:52:48.581Z,12.20
2022-09-27T00:53:56.151Z,12.20
2022-09-27T00:55:02.949Z,12.20
2022-09-27T00:56:11.199Z,12.20
2022-09-27T00:57:13.244Z,12.10
2022-09-27T00:58:19.350Z,12.20
2022-09-27T00:59:26.981Z,12.20
2022-09-27T01:00:30.528Z,12.20
2022-09-27T01:01:35.006Z,12.20
2022-09-27T01:02:39.008Z,12.20
2022-09-27T01:03:47.224Z,12.20
2022-09-27T01:04:50.027Z,12.20
2022-09-27T01:05:54.303Z,12.20
2022-09-27T01:06:57.906Z,12.20
2022-09-27T01:08:01.090Z,12.20
2022-09-27T01:09:04.570Z,12.20
2022-09-27T01:10:08.481Z,12.20
2022-09-27T01:11:19.584Z,12.20
2022-09-27T01:12:31.197Z,12.20
2022-09-27T01:13:41.546Z,12.20
2022-09-27T01:15:01.097Z,12.20
2022-09-27T01:16:14.028Z,12.20
2022-09-27T01:17:30.056Z,12.20
2022-09-27T01:18:38.279Z,12.20
2022-09-27T01:19:56.368Z,12.20
2022-09-27T01:21:25.438Z,12.30
2022-09-27T01:22:30.857Z,12.30
2022-09-27T01:23:56.038Z,12.30
2022-09-27T01:25:14.887Z,12.30
2022-09-27T01:26:31.573Z,12.30
2022-09-27T01:27:58.083Z,12.30
2022-09-27T01:29:07.165Z,12.30
2022-09-27T01:30:21.913Z,12.30
2022-09-27T01:31:32.985Z,12.30
2022-09-27T01:32:44.706Z,12.30
2022-09-27T01:33:55.356Z,12.30
2022-09-27T01:35:04.743Z,12.40
2022-09-27T01:36:16.415Z,12.40
2022-09-27T01:37:25.644Z,12.40
2022-09-27T01:38:34.923Z,12.30
2022-09-27T01:39:49.708Z,12.30
2022-09-27T01:41:14.233Z,12.30
2022-09-27T01:42:23.953Z,12.30
2022-09-27T01:43:35.195Z,12.40
2022-09-27T01:44:45.979Z,12.30
2022-09-27T01:45:58.709Z,12.30
2022-09-27T01:47:39.424Z,12.40
2022-09-27T01:49:17.038Z,12.40
2022-09-27T01:50:27.934Z,12.40
2022-09-27T01:51:34.804Z,12.40
2022-09-27T01:52:40.490Z,12.40
2022-09-27T01:53:46.890Z,12.40
2022-09-27T01:55:10.523Z,12.40
2022-09-27T01:56:38.865Z,12.40
2022-09-27T01:57:51.705Z,12.40
2022-09-27T01:59:07.523Z,12.40
2022-09-27T02:00:13.133Z,12.50
2022-09-27T02:01:22.060Z,12.50
2022-09-27T02:02:29.605Z,12.50
2022-09-27T02:03:57.473Z,12.50
2022-09-27T02:05:27.267Z,12.50
2022-09-27T02:06:38.031Z,12.50
2022-09-27T02:08:03.322Z,12.50
2022-09-27T02:09:10.318Z,12.50
2022-09-27T02:10:43.881Z,12.50
2022-09-27T02:11:57.262Z,12.60
2022-09-27T02:13:06.963Z,12.50
2022-09-27T02:14:15.143Z,12.50
2022-09-27T02:15:24.893Z,12.50
2022-09-27T02:16:50.764Z,12.50
2022-09-27T02:18:01.686Z,12.50
2022-09-27T02:19:12.826Z,12.50
2022-09-27T02:20:24.019Z,12.50
2022-09-27T02:21:35.311Z,12.50
2022-09-27T02:22:46.969Z,12.60
2022-09-27T02:23:54.046Z,12.50
2022-09-27T02:25:00.578Z,12.60
2022-09-27T02:26:12.275Z,12.50
2022-09-27T02:27:22.151Z,12.50
2022-09-27T02:28:29.186Z,12.60
2022-09-27T02:29:38.902Z,12.50
2022-09-27T02:30:42.625Z,12.50
2022-09-27T02:32:06.667Z,12.50
2022-09-27T02:33:10.360Z,12.50
2022-09-27T02:34:17.111Z,12.50
2022-09-27T02:35:25.377Z,12.50
2022-09-27T02:36:27.632Z,12.60
2022-09-27T02:37:31.177Z,12.60
2022-09-27T02:38:33.628Z,12.60
2022-09-27T02:39:38.905Z,12.60
2022-09-27T02:40:45.288Z,12.60
2022-09-27T02:41:48.468Z,12.60
2022-09-27T02:42:51.372Z,12.60
2022-09-27T02:43:58.263Z,12.60
2022-09-27T02:45:04.238Z,12.60
2022-09-27T02:46:20.138Z,12.50
2022-09-27T02:47:43.532Z,12.50
2022-09-27T02:48:57.809Z,12.50
2022-09-27T02:50:14.872Z,12.60
2022-09-27T02:51:46.898Z,12.50
2022-09-27T02:52:57.939Z,12.50
2022-09-27T02:54:16.858Z,12.50
2022-09-27T02:56:04.398Z,12.50
2022-09-27T02:57:36.905Z,12.50
2022-09-27T02:59:05.893Z,12.50
2022-09-27T03:00:45.674Z,12.50
2022-09-27T03:02:14.355Z,12.50
2022-09-27T03:04:00.007Z,12.50
2022-09-27T03:05:06.129Z,12.60
2022-09-27T03:06:11.852Z,12.50
2022-09-27T03:07:14.782Z,12.60
2022-09-27T03:08:18.208Z,12.60
2022-09-27T03:09:22.110Z,12.60
2022-09-27T03:10:27.792Z,12.60
2022-09-27T03:11:29.902Z,12.60
2022-09-27T03:12:33.971Z,12.60
2022-09-27T03:13:55.806Z,12.60
2022-09-27T03:15:02.954Z,12.60
2022-09-27T03:16:35.016Z,12.60
2022-09-27T03:17:55.443Z,12.70
2022-09-27T03:19:18.781Z,12.60
2022-09-27T03:21:00.033Z,12.60
2022-09-27T03:22:02.975Z,12.60
2022-09-27T03:23:07.004Z,12.60
2022-09-27T03:24:09.265Z,12.60
2022-09-27T03:25:12.826Z,12.60
2022-09-27T03:26:15.106Z,12.60
2022-09-27T03:27:18.973Z,12.60
2022-09-27T03:28:21.660Z,12.60
2022-09-27T03:29:24.935Z,12.60
2022-09-27T03:30:36.080Z,12.60
2022-09-27T03:31:39.779Z,12.60
2022-09-27T03:33:05.863Z,12.60
2022-09-27T03:34:22.170Z,12.70
2022-09-27T03:35:24.193Z,12.70
2022-09-27T03:36:27.423Z,12.70
2022-09-27T03:37:29.655Z,12.70
2022-09-27T03:38:32.873Z,12.70
2022-09-27T03:39:35.130Z,12.70
2022-09-27T03:40:38.732Z,12.70
2022-09-27T03:41:42.139Z,12.70
2022-09-27T03:42:49.581Z,12.60
2022-09-27T03:43:52.056Z,12.60
2022-09-27T03:44:55.373Z,12.60
2022-09-27T03:45:57.371Z,12.60
2022-09-27T03:47:00.469Z,12.50
2022-09-27T03:48:03.539Z,12.50
2022-09-27T03:49:05.913Z,12.50
2022-09-27T03:50:12.494Z,12.50
2022-09-27T03:51:14.878Z,12.50
2022-09-27T03:52:18.533Z,12.40
2022-09-27T03:53:20.768Z,12.40
2022-09-27T03:54:24.124Z,12.40
2022-09-27T03:55:26.402Z,12.50
2022-09-27T03:56:29.488Z,12.50
2022-09-27T03:57:31.980Z,12.40
2022-09-27T03:58:35.349Z,12.40
2022-09-27T03:59:37.450Z,12.40
2022-09-27T04:01:07.205Z,12.40
2022-09-27T04:02:11.452Z,12.40
2022-09-27T04:03:33.116Z,12.30
2022-09-27T04:04:55.045Z,12.30
2022-09-27T04:06:01.039Z,12.30
2022-09-27T04:07:12.647Z,12.30
2022-09-27T04:08:14.710Z,12.30
2022-09-27T04:09:18.325Z,12.30
2022-09-27T04:10:32.265Z,12.30
2022-09-27T04:11:35.561Z,12.20
2022-09-27T04:12:39.819Z,12.20
2022-09-27T04:13:44.578Z,12.20
2022-09-27T04:14:47.600Z,12.20
2022-09-27T04:16:29.358Z,12.20
2022-09-27T04:17:58.813Z,12.20
2022-09-27T04:19:01.575Z,12.30
2022-09-27T04:20:21.111Z,12.20
2022-09-27T04:21:25.655Z,12.20
2022-09-27T04:22:29.614Z,12.20
2022-09-27T04:23:31.725Z,12.20
2022-09-27T04:24:34.914Z,12.20
2022-09-27T04:25:54.528Z,12.20
2022-09-27T04:27:26.543Z,12.20
2022-09-27T04:28:29.858Z,12.20
2022-09-27T04:29:33.076Z,12.20
2022-09-27T04:30:50.291Z,12.20
2022-09-27T04:32:13.574Z,12.20
2022-09-27T04:33:34.018Z,12.20
2022-09-27T04:34:59.970Z,12.20
2022-09-27T04:36:21.417Z,12.20
2022-09-27T04:37:38.375Z,12.20
2022-09-27T04:38:40.690Z,12.20
2022-09-27T04:39:44.413Z,12.20
2022-09-27T04:40:47.359Z,12.20
2022-09-27T04:41:50.571Z,12.20
2022-09-27T04:42:52.732Z,12.20
2022-09-27T04:43:59.265Z,12.20
2022-09-27T04:45:02.180Z,12.10
2022-09-27T04:46:06.059Z,12.10
2022-09-27T04:47:08.640Z,12.10
2022-09-27T04:48:11.841Z,12.10
2022-09-27T04:49:15.937Z,12.10
2022-09-27T04:50:21.009Z,12.10
2022-09-27T04:51:38.078Z,12.10
2022-09-27T04:52:41.902Z,12.20
2022-09-27T04:53:45.164Z,12.20
2022-09-27T04:54:47.846Z,12.20
2022-09-27T04:55:51.086Z,12.10
2022-09-27T04:56:53.392Z,12.10
2022-09-27T04:57:56.446Z,12.10
2022-09-27T04:58:59.454Z,12.20
2022-09-27T05:00:02.100Z,12.20
2022-09-27T05:01:06.137Z,12.10
2022-09-27T05:02:38.320Z,12.10
2022-09-27T05:04:00.009Z,12.10
2022-09-27T05:05:03.987Z,12.10
2022-09-27T05:06:12.025Z,12.10
2022-09-27T05:07:14.364Z,12.10
2022-09-27T05:08:23.097Z,12.10
2022-09-27T05:09:48.799Z,12.00
2022-09-27T05:10:51.336Z,12.00
2022-09-27T05:11:54.360Z,12.00
2022-09-27T05:12:59.355Z,12.00
2022-09-27T05:14:02.331Z,12.00
2022-09-27T05:15:07.144Z,12.00
2022-09-27T05:16:33.334Z,12.00
2022-09-27T05:18:02.989Z,12.00
2022-09-27T05:19:23.819Z,12.00
2022-09-27T05:20:48.075Z,12.00
2022-09-27T05:21:56.771Z,12.00
2022-09-27T05:22:59.995Z,12.00
2022-09-27T05:24:03.463Z,12.00
2022-09-27T05:25:07.229Z,12.00
2022-09-27T05:26:09.510Z,12.00
2022-09-27T05:27:16.720Z,12.00
2022-09-27T05:28:21.584Z,12.00
2022-09-27T05:29:23.773Z,12.00
2022-09-27T05:30:40.943Z,12.00
2022-09-27T05:31:48.301Z,12.00
2022-09-27T05:32:52.948Z,12.00
2022-09-27T05:34:21.611Z,12.00
2022-09-27T05:35:33.957Z,12.00
2022-09-27T05:36:36.907Z,12.00
2022-09-27T05:37:40.900Z,12.00
2022-09-27T05:38:43.524Z,12.00
2022-09-27T05:39:48.705Z,11.90
2022-09-27T05:40:51.912Z,11.90
2022-09-27T05:41:56.242Z,11.90
2022-09-27T05:42:58.422Z,11.90
2022-09-27T05:44:01.912Z,11.80
2022-09-27T05:45:04.465Z,11.80
2022-09-27T05:46:07.624Z,11.80
2022-09-27T05:47:12.484Z,11.70
2022-09-27T05:48:15.553Z,11.70
2022-09-27T05:49:28.676Z,11.70
2022-09-27T05:50:35.824Z,11.70
2022-09-27T05:51:37.963Z,11.70
2022-09-27T05:52:41.389Z,11.70
2022-09-27T05:53:44.049Z,11.70
2022-09-27T05:54:56.630Z,11.70
2022-09-27T05:56:02.823Z,11.70
2022-09-27T05:57:13.877Z,11.70
2022-09-27T05:58:18.958Z,11.70
2022-09-27T05:59:29.763Z,11.70
2022-09-27T06:00:55.478Z,11.80
2022-09-27T06:02:31.870Z,11.80
2022-09-27T06:04:10.144Z,11.70
2022-09-27T06:05:42.456Z,11.80
2022-09-27T06:07:04.453Z,11.70
2022-09-27T06:08:09.426Z,11.80
2022-09-27T06:09:18.585Z,11.70
2022-09-27T06:10:24.156Z,11.70
2022-09-27T06:11:27.759Z,11.70
2022-09-27T06:12:32.228Z,11.70
2022-09-27T06:13:36.468Z,11.70
2022-09-27T06:14:40.607Z,11.70
2022-09-27T06:15:50.875Z,11.70
2022-09-27T06:16:54.268Z,11.70
2022-09-27T06:18:06.300Z,11.70
2022-09-27T06:19:10.244Z,11.70
2022-09-27T06:20:13.424Z,11.70
2022-09-27T06:21:15.946Z,11.70
2022-09-27T06:22:25.144Z,11.80
2022-09-27T06:23:34.405Z,11.70
2022-09-27T06:24:45.299Z,11.80
2022-09-27T06:26:01.603Z,11.80
2022-09-27T06:27:17.529Z,11.80
2022-09-27T06:28:41.542Z,11.80
2022-09-27T06:29:43.527Z,11.80
2022-09-27T06:30:55.522Z,11.80
2022-09-27T06:32:17.103Z,11.80
2022-09-27T06:33:29.282Z,11.80
2022-09-27T06:34:33.669Z,11.80
2022-09-27T06:35:38.669Z,11.80
2022-09-27T06:36:43.691Z,11.80
2022-09-27T06:37:47.363Z,11.80
2022-09-27T06:38:50.465Z,11.80
2022-09-27T06:39:56.091Z,11.80
2022-09-27T06:41:26.521Z,11.80
2022-09-27T06:42:48.577Z,11.80
2022-09-27T06:44:03.125Z,11.80
2022-09-27T06:45:27.081Z,11.80
2022-09-27T06:46:49.136Z,11.80
2022-09-27T06:48:21.177Z,11.80
2022-09-27T06:49:35.618Z,11.70
2022-09-27T06:50:40.543Z,11.80
2022-09-27T06:51:43.677Z,11.80
2022-09-27T06:52:50.474Z,11.80
2022-09-27T06:53:55.745Z,11.70
2022-09-27T06:54:57.779Z,11.80
2022-09-27T06:56:01.346Z,11.80
2022-09-27T06:57:10.535Z,11.70
2022-09-27T06:58:31.811Z,11.80
2022-09-27T07:00:10.971Z,11.80
2022-09-27T07:01:32.660Z,11.80
2022-09-27T07:03:01.912Z,11.70
2022-09-27T07:04:20.022Z,11.80
2022-09-27T07:05:43.705Z,11.70
2022-09-27T07:07:04.823Z,11.70
2022-09-27T07:08:11.902Z,11.70
2022-09-27T07:09:15.382Z,11.70
2022-09-27T07:10:18.455Z,11.70
2022-09-27T07:11:21.985Z,11.70
2022-09-27T07:12:25.323Z,11.70
2022-09-27T07:13:32.732Z,11.70
2022-09-27T07:14:36.007Z,11.70
2022-09-27T07:15:41.681Z,11.70
2022-09-27T07:16:48.997Z,11.80
2022-09-27T07:17:57.986Z,11.80
2022-09-27T07:19:02.260Z,11.80
2022-09-27T07:20:06.132Z,11.80
2022-09-27T07:21:09.835Z,11.90
2022-09-27T07:22:13.223Z,11.90
2022-09-27T07:23:17.565Z,11.80
2022-09-27T07:24:20.711Z,11.90
2022-09-27T07:25:24.651Z,11.90
2022-09-27T07:26:27.736Z,11.90
2022-09-27T07:27:33.074Z,11.90
2022-09-27T07:28:36.923Z,11.90
2022-09-27T07:29:39.046Z,12.00
2022-09-27T07:30:42.621Z,12.00
2022-09-27T07:31:44.774Z,12.00
2022-09-27T07:32:48.160Z,12.10
2022-09-27T07:33:50.338Z,12.10
2022-09-27T07:34:54.285Z,12.20
2022-09-27T07:35:57.484Z,12.20
2022-09-27T07:37:00.545Z,12.20
2022-09-27T07:38:05.157Z,12.20
2022-09-27T07:39:09.208Z,12.30
2022-09-27T07:40:12.016Z,12.30
2022-09-27T07:41:16.121Z,12.30
2022-09-27T07:42:20.578Z,12.30
2022-09-27T07:43:28.545Z,12.30
2022-09-27T07:44:30.512Z,12.30
2022-09-27T07:46:06.479Z,12.30
2022-09-27T07:47:28.948Z,12.30
2022-09-27T07:48:55.013Z,12.20
2022-09-27T07:50:11.179Z,12.20
2022-09-27T07:51:49.666Z,12.20
2022-09-27T07:53:15.130Z,12.20
2022-09-27T07:54:26.386Z,12.20
2022-09-27T07:55:51.941Z,12.20
2022-09-27T07:56:56.448Z,12.30
2022-09-27T07:58:03.807Z,12.20
2022-09-27T07:59:08.264Z,12.30
2022-09-27T08:00:13.134Z,12.20
2022-09-27T08:01:20.031Z,12.20
2022-09-27T08:02:24.375Z,12.30
2022-09-27T08:03:28.465Z,12.20
2022-09-27T08:04:30.597Z,12.30
2022-09-27T08:05:34.528Z,12.30
2022-09-27T08:06:36.916Z,12.30
2022-09-27T08:07:41.570Z,12.30
2022-09-27T08:08:44.969Z,12.30
2022-09-27T08:09:47.255Z,12.20
2022-09-27T08:10:50.488Z,12.20
2022-09-27T08:11:58.124Z,12.20
2022-09-27T08:13:03.906Z,12.20
2022-09-27T08:14:08.672Z,12.30
2022-09-27T08:15:11.043Z,12.20
2022-09-27T08:16:14.452Z,12.30
2022-09-27T08:17:36.702Z,12.30
2022-09-27T08:18:57.956Z,12.30
2022-09-27T08:20:18.146Z,12.30
2022-09-27T08:21:58.909Z,12.30
2022-09-27T08:23:07.472Z,12.40
2022-09-27T08:24:17.589Z,12.40
2022-09-27T08:25:36.890Z,12.40
2022-09-27T08:26:43.250Z,12.40
2022-09-27T08:27:56.890Z,12.40
2022-09-27T08:29:12.724Z,12.50
2022-09-27T08:30:18.747Z,12.50
2022-09-27T08:31:21.980Z,12.50
2022-09-27T08:32:24.693Z,12.50
2022-09-27T08:33:32.873Z,12.60
2022-09-27T08:34:36.269Z,12.50
2022-09-27T08:36:17.091Z,12.60
2022-09-27T08:37:21.775Z,12.60
2022-09-27T08:38:25.538Z,12.60
2022-09-27T08:39:28.498Z,12.60
2022-09-27T08:40:47.415Z,12.50
2022-09-27T08:41:58.267Z,12.50
2022-09-27T08:43:07.226Z,12.60
2022-09-27T08:44:19.192Z,12.50
2022-09-27T08:45:43.650Z,12.60
2022-09-27T08:46:55.711Z,12.80
2022-09-27T08:48:01.868Z,12.80
2022-09-27T08:49:13.225Z,12.80
2022-09-27T08:50:26.594Z,12.80
2022-09-27T08:51:33.345Z,12.80
2022-09-27T08:52:41.301Z,12.80
2022-09-27T08:53:52.745Z,12.80
2022-09-27T08:54:57.427Z,12.90
2022-09-27T08:56:03.520Z,12.90
2022-09-27T08:57:13.272Z,12.90
2022-09-27T08:58:23.633Z,12.80
2022-09-27T08:59:31.586Z,12.70
2022-09-27T09:00:35.152Z,12.80
2022-09-27T09:01:39.152Z,12.80
2022-09-27T09:02:46.192Z,12.80
2022-09-27T09:03:50.711Z,12.80
2022-09-27T09:04:58.680Z,12.70
2022-09-27T09:06:12.096Z,12.70
2022-09-27T09:07:36.111Z,12.70
2022-09-27T09:08:50.977Z,12.70
2022-09-27T09:10:00.099Z,12.70
2022-09-27T09:11:31.152Z,12.80
2022-09-27T09:12:46.812Z,12.70
2022-09-27T09:14:14.623Z,12.80
2022-09-27T09:15:27.017Z,12.90
2022-09-27T09:16:43.960Z,12.90
2022-09-27T09:17:59.758Z,12.90
2022-09-27T09:19:40.271Z,13.00
2022-09-27T09:21:15.990Z,13.00
2022-09-27T09:22:33.639Z,13.10
2022-09-27T09:24:01.628Z,13.10
2022-09-27T09:25:22.507Z,13.10
2022-09-27T09:26:30.736Z,13.10
2022-09-27T09:27:42.399Z,13.20
2022-09-27T09:28:56.920Z,13.20
2022-09-27T09:30:18.929Z,13.10
2022-09-27T09:31:35.914Z,13.10
2022-09-27T09:32:49.672Z,13.10
2022-09-27T09:33:58.847Z,13.00
2022-09-27T09:35:07.220Z,13.10
2022-09-27T09:36:22.053Z,13.10
2022-09-27T09:37:35.303Z,13.10
2022-09-27T09:38:42.996Z,13.10
2022-09-27T09:39:48.853Z,13.10
2022-09-27T09:40:58.560Z,13.00
2022-09-27T09:42:13.772Z,13.10
2022-09-27T09:43:21.473Z,13.10
2022-09-27T09:44:30.174Z,13.10
2022-09-27T09:45:42.884Z,13.10
2022-09-27T09:46:50.835Z,13.10
2022-09-27T09:47:57.664Z,13.20
2022-09-27T09:49:07.486Z,13.20
2022-09-27T09:50:18.117Z,13.30
2022-09-27T09:51:24.415Z,13.30
2022-09-27T09:52:36.070Z,13.30
2022-09-27T09:53:44.522Z,13.30
2022-09-27T09:54:52.611Z,13.40
2022-09-27T09:55:59.492Z,13.40
2022-09-27T09:57:07.735Z,13.40
2022-09-27T09:58:22.571Z,13.50
2022-09-27T09:59:35.557Z,13.50
2022-09-27T10:00:41.503Z,13.40
2022-09-27T10:01:48.033Z,13.40
2022-09-27T10:02:55.345Z,13.40
2022-09-27T10:03:58.649Z,13.40
2022-09-27T10:05:06.752Z,13.40
2022-09-27T10:06:11.688Z,13.40
2022-09-27T10:07:16.824Z,13.40
2022-09-27T10:08:22.223Z,13.30
2022-09-27T10:09:33.614Z,13.30
2022-09-27T10:10:55.927Z,13.20
2022-09-27T10:12:18.227Z,13.20
2022-09-27T10:13:23.723Z,13.20
2022-09-27T10:14:33.916Z,13.20
2022-09-27T10:15:39.458Z,13.20
2022-09-27T10:16:47.806Z,13.10
2022-09-27T10:17:56.929Z,13.10
2022-09-27T10:19:05.949Z,13.10
2022-09-27T10:20:27.897Z,13.20
2022-09-27T10:21:31.022Z,13.20
2022-09-27T10:22:38.583Z,13.20
2022-09-27T10:24:17.304Z,13.30
2022-09-27T10:25:54.066Z,13.30
2022-09-27T10:27:11.018Z,13.40
2022-09-27T10:28:34.787Z,13.50
2022-09-27T10:29:39.740Z,13.50
2022-09-27T10:30:55.753Z,13.60
2022-09-27T10:32:00.627Z,13.70
2022-09-27T10:33:20.791Z,13.70
2022-09-27T10:34:32.202Z,13.70
2022-09-27T10:35:43.649Z,13.80
2022-09-27T10:37:04.606Z,13.80
2022-09-27T10:38:24.498Z,13.80
2022-09-27T10:39:32.334Z,13.90
2022-09-27T10:40:35.242Z,14.00
2022-09-27T10:41:42.523Z,14.00
2022-09-27T10:42:49.695Z,14.20
2022-09-27T10:43:58.501Z,14.30
2022-09-27T10:45:27.739Z,14.40
2022-09-27T10:46:34.507Z,14.50
2022-09-27T10:47:52.173Z,14.60
2022-09-27T10:49:20.482Z,14.60
2022-09-27T10:50:49.042Z,14.70
2022-09-27T10:52:01.195Z,14.80
2022-09-27T10:53:06.624Z,14.80
2022-09-27T10:54:20.456Z,14.90
2022-09-27T10:55:26.384Z,15.00
2022-09-27T10:56:33.597Z,15.10
2022-09-27T10:57:36.473Z,15.10
2022-09-27T10:58:41.896Z,15.10
2022-09-27T10:59:56.705Z,15.20
2022-09-27T11:01:03.254Z,15.30
2022-09-27T11:02:21.850Z,15.20
2022-09-27T11:03:37.121Z,15.20
2022-09-27T11:04:41.754Z,15.20
2022-09-27T11:05:44.218Z,15.20
2022-09-27T11:06:47.202Z,15.20
2022-09-27T11:07:52.719Z,15.20
2022-09-27T11:09:12.009Z,15.10
2022-09-27T11:10:25.156Z,15.20
2022-09-27T11:11:30.125Z,15.20
2022-09-27T11:12:35.719Z,15.10
2022-09-27T11:13:39.531Z,15.10
2022-09-27T11:14:55.029Z,15.10
2022-09-27T11:16:16.203Z,15.00
2022-09-27T11:17:27.749Z,15.00
2022-09-27T11:18:45.684Z,15.00
2022-09-27T11:19:58.062Z,14.90
2022-09-27T11:21:12.027Z,14.90
2022-09-27T11:22:31.681Z,14.80
2022-09-27T11:23:49.713Z,14.80
2022-09-27T11:25:08.306Z,14.80
2022-09-27T11:26:30.794Z,14.80
2022-09-27T11:27:44.781Z,14.80
2022-09-27T11:28:58.261Z,14.80
2022-09-27T11:30:25.545Z,14.80
2022-09-27T11:32:03.035Z,14.70
2022-09-27T11:33:30.999Z,14.60
2022-09-27T11:34:44.050Z,14.60
2022-09-27T11:36:00.765Z,14.60
2022-09-27T11:37:17.600Z,14.70
2022-09-27T11:38:51.099Z,14.70
2022-09-27T11:40:06.090Z,14.80
2022-09-27T11:41:28.832Z,14.90
2022-09-27T11:42:47.745Z,15.00
2022-09-27T11:44:06.197Z,15.10
2022-09-27T11:45:40.942Z,15.20
2022-09-27T11:47:02.187Z,15.30
2022-09-27T11:48:17.843Z,15.40
2022-09-27T11:49:42.222Z,15.50
2022-09-27T11:51:03.847Z,15.60
2022-09-27T11:52:19.537Z,15.60
2022-09-27T11:53:34.943Z,15.50
2022-09-27T11:54:58.006Z,15.40
2022-09-27T11:56:09.108Z,15.40
2022-09-27T11:57:19.253Z,15.40
2022-09-27T11:58:31.578Z,15.20
2022-09-27T12:00:01.574Z,14.90
2022-09-27T12:01:16.751Z,14.60
2022-09-27T12:02:35.866Z,14.20
2022-09-27T12:04:03.168Z,13.80
2022-09-27T12:05:19.773Z,13.40
2022-09-27T12:06:48.017Z,13.00
2022-09-27T12:08:01.517Z,12.60
2022-09-27T12:09:08.984Z,12.40
2022-09-27T12:10:14.408Z,12.20
2022-09-27T12:11:23.275Z,12.00
2022-09-27T12:12:31.960Z,11.80
2022-09-27T12:13:40.634Z,11.80
2022-09-27T12:14:47.202Z,11.60
2022-09-27T12:15:49.923Z,11.50
2022-09-27T12:16:57.590Z,11.50
2022-09-27T12:18:08.746Z,11.40
2022-09-27T12:19:20.048Z,11.40
2022-09-27T12:20:39.659Z,11.40
2022-09-27T12:21:43.313Z,11.30
2022-09-27T12:23:00.643Z,11.30
2022-09-27T12:24:21.822Z,11.30
2022-09-27T12:25:44.424Z,11.30
2022-09-27T12:26:59.019Z,11.30
2022-09-27T12:28:08.267Z,11.30
2022-09-27T12:29:15.200Z,11.30
2022-09-27T12:30:18.790Z,11.30
2022-09-27T12:31:29.779Z,11.30
2022-09-27T12:32:40.848Z,11.40
2022-09-27T12:33:51.750Z,11.40
2022-09-27T12:35:01.258Z,11.50
2022-09-27T12:36:09.388Z,11.50
2022-09-27T12:37:19.363Z,11.50
2022-09-27T12:38:27.493Z,11.60
2022-09-27T12:39:42.488Z,11.70
2022-09-27T12:41:08.469Z,11.70
2022-09-27T12:42:26.833Z,11.80
2022-09-27T12:43:35.206Z,11.80
2022-09-27T12:44:58.973Z,11.90
2022-09-27T12:46:13.136Z,12.00
2022-09-27T12:47:31.297Z,11.90
2022-09-27T12:48:43.846Z,11.90
2022-09-27T12:50:00.343Z,12.00
2022-09-27T12:51:10.342Z,12.10
2022-09-27T12:52:25.278Z,12.10
2022-09-27T12:53:34.871Z,12.20
2022-09-27T12:54:55.384Z,12.30
2022-09-27T12:56:19.835Z,12.50
2022-09-27T12:57:35.784Z,12.60
2022-09-27T12:59:17.624Z,12.80
2022-09-27T13:00:25.155Z,12.90
2022-09-27T13:01:54.008Z,13.00
2022-09-27T13:03:25.704Z,13.00
2022-09-27T13:05:04.167Z,13.10
2022-09-27T13:06:33.664Z,13.10
2022-09-27T13:07:52.496Z,13.10
2022-09-27T13:09:19.586Z,13.10
2022-09-27T13:10:41.758Z,13.10
2022-09-27T13:12:05.119Z,13.10
2022-09-27T13:13:12.937Z,13.20
2022-09-27T13:14:19.348Z,13.30
2022-09-27T13:15:27.640Z,13.40
2022-09-27T13:16:31.446Z,13.30
2022-09-27T13:17:50.737Z,13.40
2022-09-27T13:19:02.894Z,13.30
2022-09-27T13:20:42.543Z,13.30
2022-09-27T13:21:59.993Z,13.20
2022-09-27T13:24:00.461Z,13.20
2022-09-27T13:25:55.426Z,13.20
2022-09-27T13:27:40.111Z,13.10
2022-09-27T13:28:58.936Z,13.00
2022-09-27T13:30:48.295Z,13.00
2022-09-27T13:32:13.856Z,12.90
2022-09-27T13:33:46.371Z,12.90
2022-09-27T13:34:55.106Z,12.80
2022-09-27T13:36:30.374Z,12.80
2022-09-27T13:37:51.672Z,12.60
2022-09-27T13:39:19.954Z,12.60
2022-09-27T13:40:42.960Z,12.60
2022-09-27T13:42:11.516Z,12.70
2022-09-27T13:43:45.558Z,12.80
2022-09-27T13:45:20.136Z,13.00
2022-09-27T13:46:26.448Z,13.00
2022-09-27T13:47:36.150Z,13.10
2022-09-27T13:48:47.761Z,13.20
2022-09-27T13:49:54.871Z,13.30
2022-09-27T13:51:22.640Z,13.30
2022-09-27T13:52:33.766Z,13.30
2022-09-27T13:53:59.319Z,13.40
2022-09-27T13:55:04.285Z,13.30
2022-09-27T13:56:48.381Z,13.30
2022-09-27T13:57:55.478Z,13.40
2022-09-27T13:59:05.502Z,13.30
2022-09-27T14:00:24.761Z,13.20
2022-09-27T14:01:36.837Z,13.30
2022-09-27T14:02:44.642Z,13.20
2022-09-27T14:03:49.436Z,13.30
2022-09-27T14:04:53.447Z,13.20
2022-09-27T14:05:59.532Z,13.20
2022-09-27T14:07:04.765Z,13.30
2022-09-27T14:08:21.286Z,13.20
2022-09-27T14:09:28.833Z,13.20
2022-09-27T14:10:46.658Z,13.20
2022-09-27T14:11:53.571Z,13.20
2022-09-27T14:13:00.033Z,13.20
2022-09-27T14:14:05.188Z,13.20
2022-09-27T14:15:22.175Z,13.10
2022-09-27T14:16:30.532Z,13.10
2022-09-27T14:17:33.851Z,13.00
2022-09-27T14:18:45.690Z,13.00
2022-09-27T14:19:50.652Z,13.00
2022-09-27T14:20:54.102Z,12.90
2022-09-27T14:22:26.000Z,12.90
2022-09-27T14:23:31.316Z,12.90
2022-09-27T14:24:46.094Z,12.90
2022-09-27T14:25:57.710Z,12.80
2022-09-27T14:27:14.401Z,12.70
2022-09-27T14:28:26.427Z,12.70
2022-09-27T14:29:46.419Z,12.70
2022-09-27T14:31:07.252Z,12.70
2022-09-27T14:32:48.511Z,12.70
2022-09-27T14:34:08.736Z,12.60
2022-09-27T14:35:33.054Z,12.70
2022-09-27T14:36:55.067Z,12.70
2022-09-27T14:38:07.482Z,12.70
2022-09-27T14:39:23.547Z,12.70
2022-09-27T14:40:29.528Z,12.70
2022-09-27T14:41:36.619Z,12.70
2022-09-27T14:42:41.001Z,12.60
2022-09-27T14:43:49.462Z,12.60
2022-09-27T14:44:53.477Z,12.60
2022-09-27T14:46:01.429Z,12.60
2022-09-27T14:47:11.147Z,12.50
2022-09-27T14:48:23.734Z,12.50
2022-09-27T14:49:26.819Z,12.50
2022-09-27T14:50:31.376Z,12.50
2022-09-27T14:51:33.326Z,12.50
2022-09-27T14:52:36.596Z,12.60
2022-09-27T14:53:45.606Z,12.50
2022-09-27T14:55:00.706Z,12.60
2022-09-27T14:56:03.810Z,12.60
2022-09-27T14:57:08.498Z,12.60
2022-09-27T14:58:36.029Z,12.60
2022-09-27T14:59:46.352Z,12.60
2022-09-27T15:00:50.003Z,12.70
2022-09-27T15:01:53.144Z,12.60
2022-09-27T15:02:59.177Z,12.60
2022-09-27T15:04:07.096Z,12.70
2022-09-27T15:05:15.660Z,12.70
2022-09-27T15:06:20.031Z,12.70
2022-09-27T15:07:23.718Z,12.70
2022-09-27T15:08:33.496Z,12.80
2022-09-27T15:09:37.085Z,12.70
2022-09-27T15:10:41.369Z,12.60
2022-09-27T15:11:48.125Z,12.70
2022-09-27T15:12:54.478Z,12.70
2022-09-27T15:13:58.673Z,12.80
2022-09-27T15:15:03.513Z,12.70
2022-09-27T15:16:09.699Z,12.80
2022-09-27T15:17:20.899Z,12.80
2022-09-27T15:18:42.727Z,12.80
2022-09-27T15:19:59.005Z,12.70
2022-09-27T15:21:02.551Z,12.70
2022-09-27T15:22:24.035Z,12.70
2022-09-27T15:23:28.997Z,12.60
2022-09-27T15:24:39.417Z,12.70